Time;durP1;ratioP1;P1;durP2;ratioP2;P2;SDS_P1;SDS_P2;PMS_P1;PMS_P2;Temp;Humidity;BMP_temperature;BMP_pressure;BME280_temperature;BME280_humidity;BME280_pressure;Samples;Min_cycle;Max_cycle;Signal;HPM_P1;HPM_P2
2021/05/28 00:00:29;;;;;;;4.03;2.28;;;13.20;83.40;;;;;;5036008;28;20024;-72
2021/05/28 00:02:54;;;;;;;6.68;2.00;;;13.20;83.40;;;;;;5053513;28;20469;-71
2021/05/28 00:05:20;;;;;;;4.13;1.98;;;13.10;83.20;;;;;;5053072;28;20055;-71
2021/05/28 00:07:46;;;;;;;4.82;2.00;;;13.10;83.50;;;;;;5053613;28;20466;-71
2021/05/28 00:10:12;;;;;;;2.65;2.00;;;13.10;83.80;;;;;;5053050;28;20100;-72
2021/05/28 00:12:40;;;;;;;2.60;1.85;;;13.10;83.80;;;;;;5053537;28;20528;-71
2021/05/28 00:15:08;;;;;;;3.25;1.83;;;13.10;84.00;;;;;;5051490;28;20033;-71
2021/05/28 00:17:34;;;;;;;3.22;2.00;;;13.00;83.80;;;;;;5018971;28;20025;-71
2021/05/28 00:19:59;;;;;;;3.47;2.33;;;13.10;84.00;;;;;;5035247;28;20036;-75
2021/05/28 00:22:25;;;;;;;4.10;2.10;;;13.10;83.70;;;;;;5031917;28;20083;-71
2021/05/28 00:24:51;;;;;;;3.67;2.17;;;13.10;83.40;;;;;;5033428;28;20030;-71
2021/05/28 00:27:17;;;;;;;3.53;2.22;;;13.10;83.20;;;;;;5032863;28;20076;-72
2021/05/28 00:29:43;;;;;;;3.53;2.15;;;13.10;83.30;;;;;;5032129;28;20462;-72
2021/05/28 00:32:09;;;;;;;5.80;2.03;;;13.10;83.60;;;;;;5032482;28;20112;-72
2021/05/28 00:34:35;;;;;;;4.10;2.03;;;13.10;83.30;;;;;;5032024;28;20036;-72
2021/05/28 00:37:01;;;;;;;6.82;2.10;;;13.10;83.50;;;;;;5014928;28;20025;-73
2021/05/28 00:39:26;;;;;;;5.78;2.15;;;13.20;83.50;;;;;;5015546;28;20484;-72
2021/05/28 00:41:52;;;;;;;3.45;2.15;;;13.20;83.40;;;;;;5015590;28;20528;-71
2021/05/28 00:44:27;;;;;;;4.20;2.17;;;13.20;83.30;;;;;;5014798;28;20034;-72
2021/05/28 00:46:52;;;;;;;3.10;2.13;;;13.20;83.20;;;;;;5031888;28;20021;-72
2021/05/28 00:49:18;;;;;;;4.38;2.28;;;13.10;83.20;;;;;;5014678;28;20494;-72
2021/05/28 00:51:44;;;;;;;3.65;1.90;;;13.10;83.50;;;;;;5032949;28;20025;-71
2021/05/28 00:54:10;;;;;;;3.28;2.20;;;13.10;83.30;;;;;;5014435;28;20493;-72
2021/05/28 00:56:38;;;;;;;3.60;2.00;;;13.10;83.60;;;;;;5015185;28;20063;-72
2021/05/28 00:59:04;;;;;;;4.07;2.10;;;13.10;83.30;;;;;;5019895;28;20022;-72
2021/05/28 01:01:32;;;;;;;3.95;2.05;;;13.10;82.90;;;;;;5031570;28;20040;-71
2021/05/28 01:03:57;;;;;;;2.17;1.98;;;13.10;83.30;;;;;;5015181;28;20025;-71
2021/05/28 01:06:24;;;;;;;3.08;2.10;;;13.00;83.70;;;;;;5032163;28;20360;-72
2021/05/28 01:08:50;;;;;;;3.50;1.90;;;13.00;83.80;;;;;;5015042;28;20120;-71
2021/05/28 01:11:16;;;;;;;4.70;2.20;;;13.10;83.40;;;;;;5032062;28;20065;-71
2021/05/28 01:13:42;;;;;;;2.47;1.95;;;13.10;83.20;;;;;;5014818;28;20033;-71
2021/05/28 01:16:07;;;;;;;3.72;2.45;;;13.00;83.30;;;;;;5014325;28;20116;-72
2021/05/28 01:18:34;;;;;;;2.67;1.98;;;13.00;83.80;;;;;;5032480;28;20059;-71
2021/05/28 01:21:00;;;;;;;4.05;2.00;;;13.10;83.60;;;;;;5014520;28;20034;-76
2021/05/28 01:23:26;;;;;;;4.38;2.17;;;13.00;83.90;;;;;;5030827;28;20068;-71
2021/05/28 01:25:52;;;;;;;4.78;2.53;;;13.00;84.10;;;;;;5014533;28;20049;-72
2021/05/28 01:28:18;;;;;;;4.82;2.30;;;12.90;84.20;;;;;;5030539;28;20038;-72
2021/05/28 01:30:43;;;;;;;5.32;2.58;;;12.90;84.20;;;;;;5031089;28;20026;-72
2021/05/28 01:33:10;;;;;;;4.38;2.30;;;12.80;84.40;;;;;;5030513;28;20037;-72
2021/05/28 01:35:35;;;;;;;2.92;2.15;;;12.80;84.70;;;;;;5032515;28;20057;-71
2021/05/28 01:38:04;;;;;;;4.65;2.42;;;12.80;84.80;;;;;;5031465;28;20079;-73
2021/05/28 01:40:30;;;;;;;5.22;2.35;;;12.80;85.30;;;;;;5032377;28;20068;-71
2021/05/28 01:42:56;;;;;;;4.40;2.30;;;12.80;85.50;;;;;;5032319;28;20052;-71
2021/05/28 01:45:22;;;;;;;5.68;2.65;;;12.80;85.50;;;;;;5030447;28;20470;-71
2021/05/28 01:47:47;;;;;;;3.30;2.15;;;12.80;85.30;;;;;;5030702;28;20116;-71
2021/05/28 01:50:15;;;;;;;3.75;2.45;;;12.80;85.40;;;;;;5014018;28;20040;-71
2021/05/28 01:52:41;;;;;;;5.35;2.28;;;12.80;85.70;;;;;;5030824;28;20030;-71
2021/05/28 01:55:09;;;;;;;4.55;2.80;;;12.80;85.40;;;;;;5031504;28;20038;-71
2021/05/28 01:57:36;;;;;;;2.90;2.60;;;12.80;85.00;;;;;;5032194;28;20021;-71
2021/05/28 02:00:03;;;;;;;3.60;2.40;;;12.80;85.40;;;;;;5013578;28;20058;-72
2021/05/28 02:02:29;;;;;;;4.13;2.90;;;12.80;85.30;;;;;;5032124;28;20021;-71
2021/05/28 02:04:54;;;;;;;5.20;2.67;;;12.70;85.50;;;;;;5032191;28;20372;-71
2021/05/28 02:07:20;;;;;;;4.00;2.30;;;12.80;85.60;;;;;;5013848;28;20030;-71
2021/05/28 02:09:46;;;;;;;5.97;2.30;;;12.70;85.50;;;;;;5047645;28;20099;-71
2021/05/28 02:12:11;;;;;;;7.90;3.15;;;12.80;84.70;;;;;;5031415;28;20475;-71
2021/05/28 02:14:37;;;;;;;4.30;2.50;;;12.80;84.70;;;;;;5047386;28;20041;-71
2021/05/28 02:17:03;;;;;;;3.85;2.10;;;12.80;84.70;;;;;;5031645;28;20152;-72
2021/05/28 02:19:29;;;;;;;4.68;2.38;;;12.70;84.90;;;;;;5031976;28;20022;-71
2021/05/28 02:21:54;;;;;;;5.22;2.55;;;12.70;85.20;;;;;;5031729;28;20475;-72
2021/05/28 02:24:22;;;;;;;5.88;2.80;;;12.70;84.30;;;;;;5029846;28;20631;-72
2021/05/28 02:26:48;;;;;;;4.88;2.90;;;12.70;84.50;;;;;;5026740;28;20057;-72
2021/05/28 02:29:14;;;;;;;5.88;3.45;;;12.70;84.50;;;;;;5011346;28;20064;-72
2021/05/28 02:31:40;;;;;;;5.47;2.90;;;12.70;84.30;;;;;;4994783;28;20431;-72
2021/05/28 02:34:07;;;;;;;4.25;2.83;;;12.80;84.00;;;;;;4993992;28;20030;-72
2021/05/28 02:36:33;;;;;;;5.13;2.97;;;12.80;83.90;;;;;;5013990;28;20033;-71
2021/05/28 02:38:58;;;;;;;5.43;3.25;;;12.70;83.20;;;;;;5015423;28;20458;-72
2021/05/28 02:41:24;;;;;;;5.75;3.10;;;12.70;82.50;;;;;;5034852;28;20035;-72
2021/05/28 02:43:50;;;;;;;7.60;3.22;;;12.60;82.40;;;;;;5035490;28;20120;-72
2021/05/28 02:46:16;;;;;;;6.25;3.38;;;12.70;82.90;;;;;;5017079;28;20125;-72
2021/05/28 02:48:42;;;;;;;4.05;2.80;;;12.70;83.30;;;;;;5017433;28;20036;-71
2021/05/28 02:51:07;;;;;;;7.40;3.63;;;12.70;83.00;;;;;;5016656;28;20033;-71
2021/05/28 02:53:34;;;;;;;6.45;3.33;;;12.60;82.60;;;;;;5017400;28;20032;-71
2021/05/28 02:56:05;;;;;;;6.50;3.25;;;12.60;83.10;;;;;;5017345;28;20048;-71
2021/05/28 02:58:31;;;;;;;5.68;3.00;;;12.60;83.20;;;;;;5017232;28;20060;-71
2021/05/28 03:00:57;;;;;;;6.28;3.25;;;12.50;83.20;;;;;;5034975;28;20055;-71
2021/05/28 03:03:23;;;;;;;8.25;3.58;;;12.50;82.80;;;;;;5033889;28;20034;-71
2021/05/28 03:05:50;;;;;;;8.20;3.20;;;12.50;82.50;;;;;;5017126;28;20159;-71
2021/05/28 03:08:17;;;;;;;5.45;3.17;;;12.50;83.00;;;;;;5034325;28;20028;-71
2021/05/28 03:10:42;;;;;;;8.82;3.55;;;12.60;83.30;;;;;;5017245;28;20021;-71
2021/05/28 03:13:09;;;;;;;7.95;3.08;;;12.70;83.30;;;;;;5016313;28;20116;-71
2021/05/28 03:15:34;;;;;;;9.75;3.05;;;12.70;83.30;;;;;;5016976;28;20387;-71
2021/05/28 03:18:00;;;;;;;6.93;3.50;;;12.70;83.40;;;;;;5035060;28;20104;-71
2021/05/28 03:20:34;;;;;;;5.50;3.22;;;12.60;82.70;;;;;;5016928;28;20459;-71
2021/05/28 03:23:00;;;;;;;8.85;3.10;;;12.60;82.50;;;;;;5032436;28;20071;-71
2021/05/28 03:25:26;;;;;;;6.07;3.47;;;12.50;82.50;;;;;;5074432;28;20037;-72
2021/05/28 03:27:53;;;;;;;6.32;3.10;;;12.40;82.70;;;;;;5074753;28;20029;-72
2021/05/28 03:30:19;;;;;;;5.95;3.03;;;12.40;83.30;;;;;;5055999;28;20029;-72
2021/05/28 03:32:45;;;;;;;4.70;3.20;;;12.40;84.00;;;;;;5056301;28;20119;-72
2021/05/28 03:35:10;;;;;;;6.25;3.20;;;12.50;83.90;;;;;;5055828;28;20127;-72
2021/05/28 03:37:39;;;;;;;7.15;3.58;;;12.50;83.90;;;;;;5056526;28;20449;-72
2021/05/28 03:40:05;;;;;;;11.55;3.80;;;12.50;83.90;;;;;;5055772;28;20025;-73
2021/05/28 03:42:31;;;;;;;7.63;3.25;;;12.50;83.70;;;;;;5073880;28;20024;-72
2021/05/28 03:44:56;;;;;;;8.07;3.50;;;12.50;84.00;;;;;;5056203;28;20033;-73
2021/05/28 03:47:22;;;;;;;7.82;3.60;;;12.50;83.90;;;;;;5055436;28;20119;-73
2021/05/28 03:49:48;;;;;;;5.88;3.17;;;12.40;83.80;;;;;;5055840;28;20445;-72
2021/05/28 03:52:14;;;;;;;8.68;4.07;;;12.50;84.10;;;;;;5055449;28;20028;-73
2021/05/28 03:54:39;;;;;;;9.52;4.03;;;12.50;82.70;;;;;;5055518;28;20071;-72
2021/05/28 03:57:06;;;;;;;7.15;3.50;;;12.50;82.50;;;;;;5055268;28;20020;-72
2021/05/28 03:59:32;;;;;;;9.23;3.65;;;12.40;82.30;;;;;;5052755;28;20032;-74
2021/05/28 04:01:57;;;;;;;8.63;3.30;;;12.40;83.30;;;;;;5052918;28;20029;-71
2021/05/28 04:04:23;;;;;;;6.20;3.25;;;12.40;83.60;;;;;;5055191;28;20424;-71
2021/05/28 04:06:49;;;;;;;8.10;3.53;;;12.40;83.50;;;;;;5055710;28;20481;-71
2021/05/28 04:09:14;;;;;;;12.20;3.80;;;12.40;84.10;;;;;;5055086;28;20468;-72
2021/05/28 04:11:40;;;;;;;7.95;4.10;;;12.40;83.30;;;;;;5055458;28;20028;-74
2021/05/28 04:14:06;;;;;;;9.27;3.78;;;12.30;82.90;;;;;;5072516;28;20029;-72
2021/05/28 04:16:31;;;;;;;9.15;4.68;;;12.30;82.50;;;;;;5055043;28;20473;-72
2021/05/28 04:18:57;;;;;;;5.20;3.67;;;12.30;82.80;;;;;;5055404;28;20111;-72
2021/05/28 04:21:22;;;;;;;10.85;5.40;;;12.30;83.00;;;;;;5072630;28;20059;-71
2021/05/28 04:23:48;;;;;;;9.25;4.30;;;12.30;82.50;;;;;;5080260;28;20051;-72
2021/05/28 04:26:14;;;;;;;7.07;4.00;;;12.40;82.80;;;;;;5054828;28;20074;-73
2021/05/28 04:28:39;;;;;;;9.02;4.10;;;12.40;82.30;;;;;;5055308;28;20033;-72
2021/05/28 04:31:05;;;;;;;9.40;3.95;;;12.40;82.40;;;;;;5054775;28;20066;-72
2021/05/28 04:33:31;;;;;;;9.38;4.03;;;12.50;82.60;;;;;;5072967;28;20033;-73
2021/05/28 04:35:56;;;;;;;9.13;4.72;;;12.40;82.30;;;;;;5055393;28;20093;-72
2021/05/28 04:38:22;;;;;;;7.93;4.70;;;12.40;82.60;;;;;;5072468;28;20244;-72
2021/05/28 04:40:49;;;;;;;9.73;4.28;;;12.40;82.80;;;;;;5072993;28;20025;-72
2021/05/28 04:43:15;;;;;;;10.60;5.13;;;12.40;82.70;;;;;;5054438;28;20109;-72
2021/05/28 04:45:41;;;;;;;13.52;5.65;;;12.40;82.70;;;;;;5054478;28;20055;-72
2021/05/28 04:48:07;;;;;;;11.57;5.50;;;12.50;82.60;;;;;;5072476;28;20028;-73
2021/05/28 04:50:33;;;;;;;12.65;5.30;;;12.50;82.50;;;;;;5055089;28;20089;-72
2021/05/28 04:52:59;;;;;;;10.23;4.80;;;12.50;83.00;;;;;;5072417;28;20038;-72
2021/05/28 04:55:26;;;;;;;13.18;5.72;;;12.50;82.80;;;;;;5054166;28;20072;-72
2021/05/28 04:57:52;;;;;;;13.98;5.40;;;12.50;82.70;;;;;;5072561;28;20025;-71
2021/05/28 05:00:19;;;;;;;10.45;4.68;;;12.50;83.00;;;;;;5054077;28;20035;-72
2021/05/28 05:02:45;;;;;;;10.18;4.80;;;12.60;82.90;;;;;;5054078;28;20127;-72
2021/05/28 05:05:11;;;;;;;9.75;5.22;;;12.60;82.70;;;;;;5054076;28;20520;-73
2021/05/28 05:07:36;;;;;;;12.35;5.78;;;12.60;83.00;;;;;;5072160;28;20025;-73
2021/05/28 05:10:03;;;;;;;9.10;5.38;;;12.60;82.90;;;;;;5072527;28;20107;-72
2021/05/28 05:12:30;;;;;;;10.02;5.47;;;12.70;83.30;;;;;;5072266;28;20033;-71
2021/05/28 05:14:55;;;;;;;14.75;5.85;;;12.70;83.60;;;;;;5072517;28;20029;-72
2021/05/28 05:17:21;;;;;;;11.35;5.60;;;12.70;83.00;;;;;;5072049;28;20031;-72
2021/05/28 05:19:46;;;;;;;12.07;5.20;;;12.70;83.40;;;;;;5054359;28;20032;-71
2021/05/28 05:22:12;;;;;;;11.13;5.20;;;12.70;83.20;;;;;;5053827;28;20028;-71
2021/05/28 05:24:38;;;;;;;10.90;5.80;;;12.70;83.00;;;;;;5054295;28;20469;-71
2021/05/28 05:27:04;;;;;;;8.65;5.38;;;12.80;83.10;;;;;;5072337;28;20472;-72
2021/05/28 05:29:29;;;;;;;13.80;6.10;;;12.80;82.80;;;;;;5053747;28;20107;-71
2021/05/28 05:31:55;;;;;;;13.00;5.72;;;12.80;82.60;;;;;;5072282;28;20048;-70
2021/05/28 05:34:21;;;;;;;12.07;5.68;;;12.80;82.90;;;;;;5071582;28;20028;-70
2021/05/28 05:36:46;;;;;;;13.55;5.53;;;12.80;82.90;;;;;;5054348;28;20032;-70
2021/05/28 05:39:12;;;;;;;11.40;5.85;;;12.80;82.90;;;;;;5071631;28;20412;-71
2021/05/28 05:41:38;;;;;;;10.40;5.95;;;12.90;83.20;;;;;;5054268;28;20591;-71
2021/05/28 05:44:04;;;;;;;12.90;5.60;;;12.90;83.20;;;;;;5054273;28;20028;-71
2021/05/28 05:46:30;;;;;;;11.95;5.53;;;12.90;83.20;;;;;;5053711;28;20392;-71
2021/05/28 05:48:55;;;;;;;11.50;5.45;;;12.90;82.80;;;;;;5054258;28;20124;-71
2021/05/28 05:51:21;;;;;;;12.43;5.60;;;12.90;82.50;;;;;;5053674;28;20060;-71
2021/05/28 05:53:47;;;;;;;12.75;6.03;;;12.90;82.50;;;;;;5053548;28;20036;-72
2021/05/28 05:56:13;;;;;;;12.60;6.05;;;13.00;82.80;;;;;;5053504;28;20055;-72
2021/05/28 05:58:40;;;;;;;15.48;5.75;;;13.10;82.60;;;;;;5054076;28;20025;-72
2021/05/28 06:01:07;;;;;;;11.40;5.38;;;13.10;82.60;;;;;;5054205;28;20397;-74
2021/05/28 06:03:33;;;;;;;11.52;5.85;;;13.10;82.80;;;;;;5071634;28;20039;-71
2021/05/28 06:05:59;;;;;;;12.65;5.07;;;13.20;82.40;;;;;;5071961;28;20389;-71
2021/05/28 06:08:24;;;;;;;11.15;5.95;;;13.20;82.30;;;;;;5053409;28;20025;-72
2021/05/28 06:10:50;;;;;;;13.73;4.95;;;13.30;81.70;;;;;;5053949;28;20090;-72
2021/05/28 06:13:16;;;;;;;13.95;6.00;;;13.30;81.20;;;;;;5055425;28;20035;-71
2021/05/28 06:15:41;;;;;;;12.40;6.28;;;13.40;81.70;;;;;;5057224;28;20028;-72
2021/05/28 06:18:07;;;;;;;13.23;5.82;;;13.40;80.80;;;;;;5057965;28;20031;-74
2021/05/28 06:20:33;;;;;;;10.38;5.63;;;13.40;80.80;;;;;;5075917;28;20027;-72
2021/05/28 06:22:59;;;;;;;13.07;5.82;;;13.40;81.00;;;;;;5075037;28;20080;-73
2021/05/28 06:25:26;;;;;;;10.55;5.70;;;13.40;80.20;;;;;;5056390;28;20028;-71
2021/05/28 06:27:51;;;;;;;10.25;5.53;;;13.40;80.60;;;;;;5057395;28;20025;-71
2021/05/28 06:30:18;;;;;;;12.05;5.90;;;13.40;80.40;;;;;;5056906;28;20028;-72
2021/05/28 06:32:43;;;;;;;13.60;5.88;;;13.30;80.40;;;;;;5057427;28;20456;-72
2021/05/28 06:35:09;;;;;;;10.25;5.97;;;13.40;80.80;;;;;;5074823;28;20103;-73
2021/05/28 06:37:35;;;;;;;12.50;5.75;;;13.40;80.50;;;;;;5057326;28;20028;-72
2021/05/28 06:40:01;;;;;;;11.48;6.00;;;13.30;80.80;;;;;;5057167;28;20153;-72
2021/05/28 06:42:26;;;;;;;12.88;6.32;;;13.30;80.50;;;;;;5074667;28;20461;-72
2021/05/28 06:44:52;;;;;;;9.25;5.60;;;13.30;80.10;;;;;;5074946;28;20025;-72
2021/05/28 06:47:18;;;;;;;10.50;5.90;;;13.30;80.80;;;;;;5056426;28;20078;-72
2021/05/28 06:49:44;;;;;;;13.13;6.43;;;13.30;80.70;;;;;;5074957;28;20049;-72
2021/05/28 06:52:10;;;;;;;10.85;5.93;;;13.40;80.80;;;;;;5056422;28;20028;-74
2021/05/28 06:54:36;;;;;;;10.30;5.30;;;13.30;80.20;;;;;;5043835;28;20037;-71
2021/05/28 06:57:04;;;;;;;13.98;6.75;;;13.30;80.00;;;;;;5037095;28;20040;-74
2021/05/28 06:59:30;;;;;;;8.88;5.45;;;13.30;80.10;;;;;;5054231;28;20115;-72
2021/05/28 07:01:56;;;;;;;10.43;5.20;;;13.30;80.70;;;;;;5036720;28;20496;-72
2021/05/28 07:04:22;;;;;;;10.25;4.90;;;13.30;80.00;;;;;;5036367;28;20029;-72
2021/05/28 07:06:48;;;;;;;10.93;4.55;;;13.30;78.60;;;;;;5036778;28;20378;-70
2021/05/28 07:09:14;;;;;;;12.07;5.05;;;13.30;78.60;;;;;;5054091;28;20057;-72
2021/05/28 07:11:40;;;;;;;9.68;4.82;;;13.40;79.20;;;;;;5036711;28;20037;-72
2021/05/28 07:14:06;;;;;;;6.53;4.28;;;13.50;77.90;;;;;;5054250;28;20454;-72
2021/05/28 07:16:32;;;;;;;9.20;5.00;;;13.40;77.80;;;;;;5036079;28;20025;-72
2021/05/28 07:18:58;;;;;;;9.63;4.72;;;13.40;78.40;;;;;;5036659;28;20052;-72
2021/05/28 07:21:25;;;;;;;11.07;4.82;;;13.40;78.50;;;;;;5035948;28;20390;-72
2021/05/28 07:23:51;;;;;;;10.02;5.03;;;13.40;78.40;;;;;;5035458;28;20138;-72
2021/05/28 07:26:17;;;;;;;7.25;4.72;;;13.40;78.20;;;;;;5035655;28;20467;-72
2021/05/28 07:28:43;;;;;;;9.73;4.07;;;13.40;77.60;;;;;;5036471;28;20036;-72
2021/05/28 07:31:09;;;;;;;8.18;4.57;;;13.50;77.70;;;;;;5036374;28;20390;-72
2021/05/28 07:33:34;;;;;;;13.95;5.55;;;13.50;77.50;;;;;;5053369;28;20113;-72
2021/05/28 07:36:01;;;;;;;9.85;4.68;;;13.50;78.00;;;;;;5054318;28;20044;-73
2021/05/28 07:38:26;;;;;;;15.52;4.93;;;13.60;77.80;;;;;;5035583;28;20032;-72
2021/05/28 07:40:52;;;;;;;24.58;8.68;;;13.60;77.90;;;;;;5029824;28;20037;-72
2021/05/28 07:43:18;;;;;;;10.77;4.90;;;13.60;79.00;;;;;;5035421;28;20087;-72
2021/05/28 07:45:49;;;;;;;8.80;5.28;;;13.80;77.80;;;;;;5035892;28;20040;-71
2021/05/28 07:48:15;;;;;;;10.63;4.57;;;14.00;76.60;;;;;;5053462;28;20025;-72
2021/05/28 07:50:47;;;;;;;10.23;4.65;;;14.00;76.40;;;;;;5035876;28;20107;-72
2021/05/28 07:53:22;;;;;;;8.88;4.50;;;14.00;75.90;;;;;;5054808;28;20035;-76
2021/05/28 07:55:49;;;;;;;10.07;4.38;;;14.00;76.30;;;;;;5055340;28;20039;-72
2021/05/28 07:58:15;;;;;;;10.77;5.13;;;14.00;76.50;;;;;;5055165;28;20020;-72
2021/05/28 08:00:41;;;;;;;9.07;4.57;;;14.00;76.40;;;;;;5055458;28;20029;-72
2021/05/28 08:03:07;;;;;;;6.63;4.25;;;14.00;76.40;;;;;;5073293;28;20116;-72
2021/05/28 08:05:33;;;;;;;10.27;4.50;;;14.00;75.60;;;;;;5072907;28;20061;-72
2021/05/28 08:07:59;;;;;;;7.25;3.92;;;14.00;75.10;;;;;;5055674;28;20071;-72
2021/05/28 08:10:26;;;;;;;7.03;3.47;;;14.00;75.60;;;;;;5072880;28;20025;-72
2021/05/28 08:12:52;;;;;;;5.38;3.35;;;14.10;74.70;;;;;;5055486;28;20060;-72
2021/05/28 08:15:19;;;;;;;5.18;3.30;;;14.20;75.10;;;;;;5054846;28;20064;-72
2021/05/28 08:17:47;;;;;;;6.07;3.92;;;14.30;74.60;;;;;;5073351;28;20020;-71
2021/05/28 08:20:14;;;;;;;7.35;3.50;;;14.40;74.30;;;;;;5055476;28;20063;-72
2021/05/28 08:22:40;;;;;;;6.38;3.08;;;14.40;74.40;;;;;;5054672;28;20047;-72
2021/05/28 08:25:06;;;;;;;6.53;3.38;;;14.50;74.00;;;;;;5055827;28;20112;-71
2021/05/28 08:27:32;;;;;;;5.47;3.20;;;14.50;72.90;;;;;;5034476;28;20025;-72
2021/05/28 08:29:58;;;;;;;5.53;2.97;;;14.50;71.90;;;;;;5035376;28;20470;-72
2021/05/28 08:32:25;;;;;;;4.97;2.60;;;14.50;72.10;;;;;;5034657;28;20040;-72
2021/05/28 08:34:51;;;;;;;4.07;2.45;;;14.60;70.80;;;;;;5035226;28;20446;-72
2021/05/28 08:37:16;;;;;;;3.38;3.03;;;14.60;70.40;;;;;;5051537;28;20021;-72
2021/05/28 08:39:42;;;;;;;5.75;2.90;;;14.60;70.90;;;;;;5035031;28;20021;-72
2021/05/28 08:42:10;;;;;;;4.60;3.05;;;14.60;71.00;;;;;;5035048;28;20465;-72
2021/05/28 08:44:36;;;;;;;6.90;4.20;;;14.60;71.30;;;;;;5033936;28;20090;-71
2021/05/28 08:47:04;;;;;;;6.18;3.88;;;14.70;71.30;;;;;;5034862;28;20036;-72
2021/05/28 08:49:30;;;;;;;5.25;3.25;;;14.70;71.60;;;;;;5032673;28;20029;-72
2021/05/28 08:51:57;;;;;;;4.90;3.25;;;14.90;71.80;;;;;;5034694;28;20032;-72
2021/05/28 08:54:24;;;;;;;5.32;2.72;;;14.90;70.70;;;;;;5057802;28;20162;-74
2021/05/28 08:56:51;;;;;;;5.50;3.35;;;15.00;70.60;;;;;;5054755;28;20044;-73
2021/05/28 08:59:17;;;;;;;7.32;3.72;;;15.00;69.60;;;;;;5053979;28;20032;-74
2021/05/28 09:01:43;;;;;;;5.75;3.90;;;15.00;70.30;;;;;;5054861;28;20032;-72
2021/05/28 09:04:11;;;;;;;6.90;4.65;;;15.10;69.70;;;;;;5054602;28;20040;-72
2021/05/28 09:06:39;;;;;;;8.35;3.70;;;15.10;70.10;;;;;;5054265;28;20078;-74
2021/05/28 09:09:10;;;;;;;4.88;3.60;;;15.20;70.10;;;;;;5054494;28;20046;-74
2021/05/28 09:12:04;;;;;;;5.43;3.00;;;15.20;69.80;;;;;;5072055;28;20024;-75
2021/05/28 09:14:37;;;;;;;3.80;3.10;;;15.20;68.00;;;;;;5054011;28;20032;-72
2021/05/28 09:17:06;;;;;;;6.20;3.42;;;15.20;68.60;;;;;;5072322;28;20030;-73
2021/05/28 09:19:34;;;;;;;5.65;3.30;;;15.10;69.10;;;;;;5071975;28;20024;-73
2021/05/28 09:22:03;;;;;;;6.78;3.70;;;15.20;69.10;;;;;;5072580;28;20406;-72
2021/05/28 09:24:37;;;;;;;6.55;3.10;;;15.20;68.40;;;;;;5043398;28;20127;-72
2021/05/28 09:27:40;;;;;;;6.45;3.15;;;15.20;68.40;;;;;;5034493;28;20031;-73
2021/05/28 09:30:12;;;;;;;5.07;3.17;;;15.30;68.10;;;;;;4991041;28;20061;-73
2021/05/28 09:32:50;;;;;;;23.23;10.20;;;15.40;68.70;;;;;;5044084;28;20425;-70
2021/05/28 09:35:21;;;;;;;22.77;10.75;;;15.40;68.40;;;;;;5054321;28;20025;-73
2021/05/28 09:37:48;;;;;;;4.13;2.70;;;15.30;67.30;;;;;;5072245;28;20112;-71
2021/05/28 09:40:19;;;;;;;6.65;3.10;;;15.30;67.10;;;;;;5071930;28;20028;-71
2021/05/28 09:42:50;;;;;;;3.70;2.60;;;15.30;68.00;;;;;;5053563;28;20059;-71
2021/05/28 09:45:31;;;;;;;6.88;3.15;;;15.30;67.80;;;;;;5071940;28;20024;-72
2021/05/28 09:48:02;;;;;;;5.68;3.10;;;15.30;67.50;;;;;;5055848;28;20077;-71
2021/05/28 09:50:34;;;;;;;4.32;3.03;;;15.30;67.90;;;;;;5057617;28;20039;-71
2021/05/28 09:53:04;;;;;;;4.47;2.45;;;15.40;67.60;;;;;;5057984;28;20037;-71
2021/05/28 09:55:36;;;;;;;4.13;2.50;;;15.50;67.60;;;;;;5057238;28;20074;-71
2021/05/28 09:58:01;;;;;;;5.07;2.35;;;15.50;66.80;;;;;;5058115;28;20028;-72
2021/05/28 10:00:36;;;;;;;5.88;2.85;;;15.50;66.60;;;;;;5074994;28;20032;-72
2021/05/28 10:03:23;;;;;;;3.55;2.58;;;15.40;65.10;;;;;;5046033;28;20033;-71
2021/05/28 10:05:58;;;;;;;5.18;2.55;;;15.50;65.60;;;;;;5056058;28;20036;-71
2021/05/28 10:08:27;;;;;;;7.05;2.20;;;15.70;65.00;;;;;;5054849;28;20476;-72
2021/05/28 10:10:55;;;;;;;3.67;2.42;;;15.90;66.20;;;;;;5037776;28;20078;-72
2021/05/28 10:13:23;;;;;;;5.78;2.38;;;16.10;63.00;;;;;;5036811;28;20035;-72
2021/05/28 10:15:50;;;;;;;4.30;2.30;;;16.20;63.20;;;;;;5037884;28;20052;-72
2021/05/28 10:18:17;;;;;;;5.00;2.45;;;16.20;62.60;;;;;;5063602;28;20032;-71
2021/05/28 10:20:48;;;;;;;4.70;2.40;;;16.20;62.30;;;;;;5056868;28;20022;-72
2021/05/28 10:23:17;;;;;;;3.03;2.07;;;16.10;62.00;;;;;;5057070;28;20055;-72
2021/05/28 10:25:44;;;;;;;4.10;2.40;;;16.00;61.80;;;;;;5054782;28;20167;-72
2021/05/28 10:28:21;;;;;;;3.88;2.20;;;15.90;63.20;;;;;;5054243;28;20025;-71
2021/05/28 10:30:49;;;;;;;3.65;2.33;;;15.90;64.50;;;;;;5053989;28;20135;-72
2021/05/28 10:33:23;;;;;;;2.72;1.80;;;15.90;64.50;;;;;;5055132;28;20493;-72
2021/05/28 10:35:51;;;;;;;2.53;1.70;;;15.90;63.50;;;;;;5037611;28;20385;-72
2021/05/28 10:38:42;;;;;;;3.38;2.20;;;15.90;63.10;;;;;;5037399;28;20124;-72
2021/05/28 10:41:08;;;;;;;3.47;1.70;;;15.90;62.50;;;;;;5037305;28;20025;-72
2021/05/28 10:43:56;;;;;;;2.92;1.70;;;15.90;64.10;;;;;;5054295;28;20469;-72
2021/05/28 10:46:22;;;;;;;5.82;1.83;;;15.90;62.80;;;;;;5054316;28;20024;-72
2021/05/28 10:48:49;;;;;;;3.70;1.60;;;15.80;61.20;;;;;;5037314;28;20119;-72
2021/05/28 10:51:41;;;;;;;3.03;1.30;;;15.70;62.70;;;;;;5037056;28;20079;-72
2021/05/28 10:54:07;;;;;;;1.92;1.58;;;15.80;62.30;;;;;;5043970;28;20028;-72
2021/05/28 10:56:35;;;;;;;3.03;1.80;;;16.00;63.00;;;;;;5073760;28;20477;-73
2021/05/28 10:59:13;;;;;;;2.78;1.90;;;16.10;61.70;;;;;;5056005;28;20029;-72
2021/05/28 11:01:42;;;;;;;3.10;1.40;;;16.40;62.00;;;;;;5074210;28;20039;-72
2021/05/28 11:04:22;;;;;;;2.00;1.45;;;16.50;60.30;;;;;;5074676;28;20028;-72
2021/05/28 11:06:54;;;;;;;2.33;1.58;;;16.40;61.10;;;;;;5056566;28;20056;-71
2021/05/28 11:09:40;;;;;;;2.45;1.45;;;16.40;59.50;;;;;;5056108;28;20044;-74
2021/05/28 11:12:09;;;;;;;3.40;2.30;;;16.40;60.40;;;;;;5045712;28;20031;-71
2021/05/28 11:14:37;;;;;;;2.00;1.50;;;16.40;61.00;;;;;;5055534;28;20090;-71
2021/05/28 11:17:03;;;;;;;2.70;1.40;;;16.40;62.10;;;;;;5074427;28;20032;-71
2021/05/28 11:19:39;;;;;;;1.85;1.20;;;16.50;63.40;;;;;;5055846;28;20043;-71
2021/05/28 11:22:11;;;;;;;2.85;1.33;;;16.60;60.00;;;;;;5074168;28;20043;-71
2021/05/28 11:24:41;;;;;;;1.27;0.70;;;16.60;58.30;;;;;;5073456;28;20040;-71
2021/05/28 11:27:15;;;;;;;2.75;1.30;;;16.80;57.40;;;;;;5056066;28;20462;-71
2021/05/28 11:29:41;;;;;;;2.80;1.23;;;16.90;57.30;;;;;;5055893;28;20036;-72
2021/05/28 11:32:35;;;;;;;1.45;1.30;;;17.10;57.40;;;;;;5056307;28;20029;-72
2021/05/28 11:35:19;;;;;;;2.50;1.42;;;17.10;55.80;;;;;;5056222;28;20032;-71
2021/05/28 11:37:58;;;;;;;3.17;1.33;;;17.10;57.00;;;;;;5055598;28;20457;-71
2021/05/28 11:40:30;;;;;;;4.20;1.35;;;17.10;55.20;;;;;;5073533;28;20056;-72
2021/05/28 11:43:14;;;;;;;;;;;17.20;56.30;;;;;;5073594;28;20050;-71
2021/05/28 11:45:45;;;;;;;2.83;1.40;;;17.30;55.60;;;;;;5073273;28;19908;-71
2021/05/28 11:48:15;;;;;;;1.48;0.90;;;17.50;56.50;;;;;;5056113;28;20119;-72
2021/05/28 11:50:56;;;;;;;1.90;0.90;;;17.50;55.30;;;;;;5073752;28;20821;-71
2021/05/28 11:53:23;;;;;;;1.20;0.90;;;17.50;55.10;;;;;;5055043;28;20028;-74
2021/05/28 11:55:54;;;;;;;2.03;1.10;;;17.40;55.90;;;;;;5055901;28;20032;-72
2021/05/28 11:58:23;;;;;;;1.63;1.10;;;17.50;55.70;;;;;;5073715;28;20092;-71
2021/05/28 12:00:50;;;;;;;1.73;0.98;;;17.50;55.60;;;;;;5073584;28;20532;-72
2021/05/28 12:03:16;;;;;;;1.55;0.80;;;17.50;55.70;;;;;;5073194;28;20031;-72
2021/05/28 12:05:44;;;;;;;1.00;0.80;;;17.40;54.50;;;;;;5073008;28;20105;-71
2021/05/28 12:08:10;;;;;;;1.02;0.73;;;17.40;55.00;;;;;;5073589;28;20032;-72
2021/05/28 12:11:05;;;;;;;0.98;0.70;;;17.50;53.90;;;;;;5072660;28;20103;-71
2021/05/28 12:13:33;;;;;;;1.88;0.65;;;17.50;53.30;;;;;;5070244;28;20041;-72
2021/05/28 12:16:02;;;;;;;1.67;1.17;;;17.70;53.80;;;;;;5072812;28;20517;-71
2021/05/28 12:18:48;;;;;;;1.67;1.00;;;18.00;53.00;;;;;;5072720;28;20089;-72
2021/05/28 12:21:15;;;;;;;1.98;1.00;;;18.10;53.30;;;;;;5073180;28;20112;-72
2021/05/28 12:23:46;;;;;;;1.27;0.90;;;18.30;53.20;;;;;;5046815;28;20090;-71
2021/05/28 12:26:15;;;;;;;1.67;0.90;;;18.30;52.20;;;;;;5015179;28;20056;-72
2021/05/28 12:28:41;;;;;;;0.73;0.73;;;18.20;52.70;;;;;;5032422;28;20052;-73
2021/05/28 12:31:14;;;;;;;0.93;0.80;;;18.20;52.40;;;;;;5014919;28;20450;-72
2021/05/28 12:33:46;;;;;;;1.25;0.82;;;18.30;52.10;;;;;;5032108;28;20116;-72
2021/05/28 12:36:14;;;;;;;1.10;0.90;;;18.20;51.50;;;;;;5015061;28;20040;-72
2021/05/28 12:38:41;;;;;;;1.08;0.80;;;18.20;50.30;;;;;;5014675;28;20193;-72
2021/05/28 12:41:09;;;;;;;1.98;1.00;;;18.30;49.90;;;;;;5015088;28;20100;-72
2021/05/28 12:43:37;;;;;;;0.93;0.52;;;18.40;51.80;;;;;;5014446;28;20037;-72
2021/05/28 12:46:03;;;;;;;0.88;0.65;;;18.60;53.30;;;;;;5015126;28;20033;-72
2021/05/28 12:48:43;;;;;;;1.70;0.80;;;18.70;51.60;;;;;;5014582;28;20026;-72